sensor_id;sensor_type;location;lat;lon;timestamp;temperature;humidity
480;DHT22;226;48.606;9.096;2023-07-22T04:18:00;13.80;85.00
480;DHT22;226;48.606;9.096;2023-07-22T04:25:25;13.70;89.10
480;DHT22;226;48.606;9.096;2023-07-22T04:32:51;13.60;85.20
480;DHT22;226;48.606;9.096;2023-07-22T04:37:49;13.70;89.10
480;DHT22;226;48.606;9.096;2023-07-22T04:42:47;13.80;89.00
480;DHT22;226;48.606;9.096;2023-07-22T04:45:15;13.80;88.00
480;DHT22;226;48.606;9.096;2023-07-22T04:47:44;13.90;86.20
480;DHT22;226;48.606;9.096;2023-07-22T04:50:16;13.90;86.80
480;DHT22;226;48.606;9.096;2023-07-22T04:52:50;13.60;87.10
480;DHT22;226;48.606;9.096;2023-07-22T04:55:18;13.90;85.80
480;DHT22;226;48.606;9.096;2023-07-22T04:57:46;14.10;87.30
480;DHT22;226;48.606;9.096;2023-07-22T05:00:15;14.10;86.70
480;DHT22;226;48.606;9.096;2023-07-22T05:02:44;14.10;87.10
480;DHT22;226;48.606;9.096;2023-07-22T05:05:12;14.20;86.50
480;DHT22;226;48.606;9.096;2023-07-22T05:07:41;14.30;86.00
480;DHT22;226;48.606;9.096;2023-07-22T05:10:10;14.30;85.20
480;DHT22;226;48.606;9.096;2023-07-22T05:12:41;14.50;83.30
480;DHT22;226;48.606;9.096;2023-07-22T05:15:10;14.60;82.80
480;DHT22;226;48.606;9.096;2023-07-22T05:17:39;14.70;82.40
480;DHT22;226;48.606;9.096;2023-07-22T05:20:08;14.70;82.40
480;DHT22;226;48.606;9.096;2023-07-22T05:22:37;14.80;82.70
480;DHT22;226;48.606;9.096;2023-07-22T05:25:06;14.90;81.40
480;DHT22;226;48.606;9.096;2023-07-22T05:27:36;15.10;77.60
480;DHT22;226;48.606;9.096;2023-07-22T05:30:06;15.00;78.10
480;DHT22;226;48.606;9.096;2023-07-22T05:32:51;15.10;76.80
480;DHT22;226;48.606;9.096;2023-07-22T05:35:20;15.10;78.00
480;DHT22;226;48.606;9.096;2023-07-22T05:37:48;15.10;77.30
480;DHT22;226;48.606;9.096;2023-07-22T05:40:16;15.20;76.10
480;DHT22;226;48.606;9.096;2023-07-22T05:42:46;15.30;74.70
480;DHT22;226;48.606;9.096;2023-07-22T05:45:14;15.20;75.00
480;DHT22;226;48.606;9.096;2023-07-22T05:47:43;15.40;75.70
480;DHT22;226;48.606;9.096;2023-07-22T05:50:11;15.10;74.40
480;DHT22;226;48.606;9.096;2023-07-22T05:52:39;15.60;74.30
480;DHT22;226;48.606;9.096;2023-07-22T05:55:08;15.90;72.70
480;DHT22;226;48.606;9.096;2023-07-22T05:57:37;15.80;73.50
480;DHT22;226;48.606;9.096;2023-07-22T06:00:07;15.80;72.30
480;DHT22;226;48.606;9.096;2023-07-22T06:02:36;16.00;72.90
480;DHT22;226;48.606;9.096;2023-07-22T06:05:05;16.30;72.00
480;DHT22;226;48.606;9.096;2023-07-22T06:07:33;16.30;71.50
480;DHT22;226;48.606;9.096;2023-07-22T06:10:01;16.10;70.20
480;DHT22;226;48.606;9.096;2023-07-22T06:12:29;16.10;68.90
480;DHT22;226;48.606;9.096;2023-07-22T06:14:57;16.30;69.60
480;DHT22;226;48.606;9.096;2023-07-22T06:17:27;16.20;67.70
480;DHT22;226;48.606;9.096;2023-07-22T06:19:55;16.40;67.60
480;DHT22;226;48.606;9.096;2023-07-22T06:22:23;16.60;69.40
480;DHT22;226;48.606;9.096;2023-07-22T06:24:51;16.50;67.50
480;DHT22;226;48.606;9.096;2023-07-22T06:27:19;16.50;67.30
480;DHT22;226;48.606;9.096;2023-07-22T06:29:47;16.60;66.30
480;DHT22;226;48.606;9.096;2023-07-22T06:32:15;16.60;68.20
480;DHT22;226;48.606;9.096;2023-07-22T06:34:45;16.70;67.10
480;DHT22;226;48.606;9.096;2023-07-22T06:37:13;16.80;67.10
480;DHT22;226;48.606;9.096;2023-07-22T06:39:41;16.80;66.60
480;DHT22;226;48.606;9.096;2023-07-22T06:42:10;16.90;65.60
480;DHT22;226;48.606;9.096;2023-07-22T06:54:36;17.40;64.40
480;DHT22;226;48.606;9.096;2023-07-22T07:02:03;17.70;63.30
480;DHT22;226;48.606;9.096;2023-07-22T07:04:32;17.90;62.10
480;DHT22;226;48.606;9.096;2023-07-22T07:14:29;18.30;57.30
480;DHT22;226;48.606;9.096;2023-07-22T07:57:09;19.70;53.90
480;DHT22;226;48.606;9.096;2023-07-22T08:07:06;20.00;48.10
480;DHT22;226;48.606;9.096;2023-07-22T08:12:04;20.20;48.80
480;DHT22;226;48.606;9.096;2023-07-22T08:14:32;20.60;48.70
480;DHT22;226;48.606;9.096;2023-07-22T08:17:01;20.30;48.50
480;DHT22;226;48.606;9.096;2023-07-22T08:19:30;20.40;46.80
480;DHT22;226;48.606;9.096;2023-07-22T08:21:58;20.50;47.00
480;DHT22;226;48.606;9.096;2023-07-22T08:24:26;20.70;44.40
480;DHT22;226;48.606;9.096;2023-07-22T08:26:54;20.60;44.30
480;DHT22;226;48.606;9.096;2023-07-22T08:29:23;20.60;45.90
480;DHT22;226;48.606;9.096;2023-07-22T08:31:51;20.70;46.10
480;DHT22;226;48.606;9.096;2023-07-22T08:34:20;20.90;44.20
480;DHT22;226;48.606;9.096;2023-07-22T08:36:48;20.70;43.20
480;DHT22;226;48.606;9.096;2023-07-22T08:39:16;20.80;42.50
480;DHT22;226;48.606;9.096;2023-07-22T08:41:47;20.70;43.40
480;DHT22;226;48.606;9.096;2023-07-22T08:44:19;20.90;42.00
480;DHT22;226;48.606;9.096;2023-07-22T08:46:54;21.00;41.20
480;DHT22;226;48.606;9.096;2023-07-22T08:49:26;21.10;41.80
480;DHT22;226;48.606;9.096;2023-07-22T08:51:55;21.20;39.70
480;DHT22;226;48.606;9.096;2023-07-22T08:54:23;21.00;38.50
480;DHT22;226;48.606;9.096;2023-07-22T08:56:52;21.10;39.00
480;DHT22;226;48.606;9.096;2023-07-22T08:59:21;21.00;39.70
480;DHT22;226;48.606;9.096;2023-07-22T09:01:49;21.20;39.60
480;DHT22;226;48.606;9.096;2023-07-22T09:04:19;21.30;41.10
480;DHT22;226;48.606;9.096;2023-07-22T09:06:49;21.40;41.60
480;DHT22;226;48.606;9.096;2023-07-22T09:09:17;21.60;40.70
480;DHT22;226;48.606;9.096;2023-07-22T09:11:47;21.90;41.40
480;DHT22;226;48.606;9.096;2023-07-22T09:14:18;22.40;40.60
480;DHT22;226;48.606;9.096;2023-07-22T09:17:04;22.80;37.80
480;DHT22;226;48.606;9.096;2023-07-22T09:19:32;23.10;38.80
480;DHT22;226;48.606;9.096;2023-07-22T09:22:02;23.00;36.40
480;DHT22;226;48.606;9.096;2023-07-22T09:24:30;23.10;33.70
480;DHT22;226;48.606;9.096;2023-07-22T09:26:58;23.20;33.80
480;DHT22;226;48.606;9.096;2023-07-22T09:29:34;22.90;32.20
480;DHT22;226;48.606;9.096;2023-07-22T09:32:02;23.40;33.20
480;DHT22;226;48.606;9.096;2023-07-22T09:34:31;23.20;32.00
480;DHT22;226;48.606;9.096;2023-07-22T09:36:59;23.10;31.30
480;DHT22;226;48.606;9.096;2023-07-22T09:39:30;23.00;28.60
480;DHT22;226;48.606;9.096;2023-07-22T09:41:58;23.10;28.40
480;DHT22;226;48.606;9.096;2023-07-22T09:44:30;22.90;28.20
480;DHT22;226;48.606;9.096;2023-07-22T09:47:06;22.70;29.30
480;DHT22;226;48.606;9.096;2023-07-22T09:49:40;22.70;29.50
480;DHT22;226;48.606;9.096;2023-07-22T09:52:09;22.50;29.40
480;DHT22;226;48.606;9.096;2023-07-22T09:54:48;22.70;29.50
480;DHT22;226;48.606;9.096;2023-07-22T09:57:18;22.60;29.00
480;DHT22;226;48.606;9.096;2023-07-22T09:59:47;22.50;29.30
480;DHT22;226;48.606;9.096;2023-07-22T10:02:17;22.80;29.90
480;DHT22;226;48.606;9.096;2023-07-22T10:04:46;22.70;29.90
480;DHT22;226;48.606;9.096;2023-07-22T10:07:17;22.70;30.40
480;DHT22;226;48.606;9.096;2023-07-22T10:09:47;22.60;29.80
480;DHT22;226;48.606;9.096;2023-07-22T10:12:16;22.90;29.40
480;DHT22;226;48.606;9.096;2023-07-22T10:14:45;22.90;29.60
480;DHT22;226;48.606;9.096;2023-07-22T10:17:13;22.90;27.70
480;DHT22;226;48.606;9.096;2023-07-22T10:19:43;23.30;28.30
480;DHT22;226;48.606;9.096;2023-07-22T10:22:12;23.20;27.20
480;DHT22;226;48.606;9.096;2023-07-22T10:24:41;23.20;27.60
480;DHT22;226;48.606;9.096;2023-07-22T10:27:11;23.20;28.30
480;DHT22;226;48.606;9.096;2023-07-22T10:29:39;23.20;27.30
480;DHT22;226;48.606;9.096;2023-07-22T10:32:08;23.70;28.50
480;DHT22;226;48.606;9.096;2023-07-22T10:34:36;23.80;28.70
480;DHT22;226;48.606;9.096;2023-07-22T10:37:04;24.00;28.30
480;DHT22;226;48.606;9.096;2023-07-22T10:39:32;24.10;27.90
480;DHT22;226;48.606;9.096;2023-07-22T10:42:01;24.30;28.40
480;DHT22;226;48.606;9.096;2023-07-22T10:44:33;24.30;27.10
480;DHT22;226;48.606;9.096;2023-07-22T10:47:04;24.30;26.40
480;DHT22;226;48.606;9.096;2023-07-22T10:49:44;24.60;25.70
480;DHT22;226;48.606;9.096;2023-07-22T10:54:42;24.30;22.40
480;DHT22;226;48.606;9.096;2023-07-22T10:57:23;24.50;24.70
480;DHT22;226;48.606;9.096;2023-07-22T10:59:55;24.20;24.10
480;DHT22;226;48.606;9.096;2023-07-22T11:02:24;24.50;25.40
480;DHT22;226;48.606;9.096;2023-07-22T11:04:56;24.60;25.30
480;DHT22;226;48.606;9.096;2023-07-22T11:07:32;24.40;23.30
480;DHT22;226;48.606;9.096;2023-07-22T11:10:14;24.30;24.40
480;DHT22;226;48.606;9.096;2023-07-22T11:12:44;24.20;24.00
480;DHT22;226;48.606;9.096;2023-07-22T11:15:16;24.50;24.60
480;DHT22;226;48.606;9.096;2023-07-22T11:17:45;24.30;24.50
480;DHT22;226;48.606;9.096;2023-07-22T11:20:13;24.50;25.10
480;DHT22;226;48.606;9.096;2023-07-22T11:22:41;24.50;25.00
480;DHT22;226;48.606;9.096;2023-07-22T11:25:17;24.30;24.30
480;DHT22;226;48.606;9.096;2023-07-22T11:27:45;24.50;24.80
480;DHT22;226;48.606;9.096;2023-07-22T11:30:15;24.50;25.30
480;DHT22;226;48.606;9.096;2023-07-22T11:32:43;24.40;24.90
480;DHT22;226;48.606;9.096;2023-07-22T11:35:16;24.50;25.30
480;DHT22;226;48.606;9.096;2023-07-22T11:37:44;24.50;25.10
480;DHT22;226;48.606;9.096;2023-07-22T11:40:12;24.40;23.90
480;DHT22;226;48.606;9.096;2023-07-22T11:42:41;24.30;24.70
480;DHT22;226;48.606;9.096;2023-07-22T11:45:12;24.50;25.00
480;DHT22;226;48.606;9.096;2023-07-22T11:47:43;24.40;26.00
480;DHT22;226;48.606;9.096;2023-07-22T11:50:12;24.30;24.90
480;DHT22;226;48.606;9.096;2023-07-22T11:52:40;24.70;26.90
480;DHT22;226;48.606;9.096;2023-07-22T11:55:08;24.90;25.50
480;DHT22;226;48.606;9.096;2023-07-22T11:57:52;25.10;24.80
480;DHT22;226;48.606;9.096;2023-07-22T12:00:21;25.10;25.60
480;DHT22;226;48.606;9.096;2023-07-22T12:02:50;25.30;23.20
480;DHT22;226;48.606;9.096;2023-07-22T12:05:24;25.30;22.50
480;DHT22;226;48.606;9.096;2023-07-22T12:07:52;24.70;22.90
480;DHT22;226;48.606;9.096;2023-07-22T12:10:20;24.90;23.60
480;DHT22;226;48.606;9.096;2023-07-22T12:12:51;24.80;23.70
480;DHT22;226;48.606;9.096;2023-07-22T12:15:21;25.20;23.60
480;DHT22;226;48.606;9.096;2023-07-22T12:17:52;25.10;22.90
480;DHT22;226;48.606;9.096;2023-07-22T12:20:23;24.90;21.90
480;DHT22;226;48.606;9.096;2023-07-22T12:22:52;25.00;21.80
480;DHT22;226;48.606;9.096;2023-07-22T12:25:20;24.80;23.00
480;DHT22;226;48.606;9.096;2023-07-22T12:27:49;24.90;22.90
480;DHT22;226;48.606;9.096;2023-07-22T12:30:17;24.70;22.30
480;DHT22;226;48.606;9.096;2023-07-22T12:32:46;25.00;23.70
480;DHT22;226;48.606;9.096;2023-07-22T12:35:17;25.20;23.70
480;DHT22;226;48.606;9.096;2023-07-22T12:37:45;25.30;23.70
480;DHT22;226;48.606;9.096;2023-07-22T12:40:14;25.20;22.00
480;DHT22;226;48.606;9.096;2023-07-22T12:42:42;25.40;24.90
480;DHT22;226;48.606;9.096;2023-07-22T12:45:10;25.40;23.30
480;DHT22;226;48.606;9.096;2023-07-22T12:47:38;25.70;23.90
480;DHT22;226;48.606;9.096;2023-07-22T12:50:07;25.70;21.30
480;DHT22;226;48.606;9.096;2023-07-22T12:52:37;25.80;20.20
480;DHT22;226;48.606;9.096;2023-07-22T12:55:05;25.60;20.60
480;DHT22;226;48.606;9.096;2023-07-22T12:57:33;25.50;20.10
480;DHT22;226;48.606;9.096;2023-07-22T13:00:02;25.50;21.00
480;DHT22;226;48.606;9.096;2023-07-22T13:02:36;25.90;20.20
480;DHT22;226;48.606;9.096;2023-07-22T13:05:05;26.10;22.10
480;DHT22;226;48.606;9.096;2023-07-22T13:07:33;26.40;20.50
480;DHT22;226;48.606;9.096;2023-07-22T13:10:03;26.20;21.10
480;DHT22;226;48.606;9.096;2023-07-22T13:12:37;26.60;19.60
480;DHT22;226;48.606;9.096;2023-07-22T13:15:06;26.50;19.60
480;DHT22;226;48.606;9.096;2023-07-22T13:17:35;26.20;19.40
480;DHT22;226;48.606;9.096;2023-07-22T13:20:04;26.20;19.10
480;DHT22;226;48.606;9.096;2023-07-22T13:22:33;26.30;18.40
480;DHT22;226;48.606;9.096;2023-07-22T13:25:03;26.60;20.10
480;DHT22;226;48.606;9.096;2023-07-22T13:27:32;26.50;20.00
480;DHT22;226;48.606;9.096;2023-07-22T13:30:00;27.00;21.70
480;DHT22;226;48.606;9.096;2023-07-22T13:32:28;27.30;20.50
480;DHT22;226;48.606;9.096;2023-07-22T13:34:56;27.50;19.30
480;DHT22;226;48.606;9.096;2023-07-22T13:37:25;27.60;19.60
480;DHT22;226;48.606;9.096;2023-07-22T13:39:53;27.70;18.60
480;DHT22;226;48.606;9.096;2023-07-22T13:42:23;28.50;11.10
480;DHT22;226;48.606;9.096;2023-07-22T13:47:20;30.00;4.00
480;DHT22;226;48.606;9.096;2023-07-22T13:52:16;30.20;5.90
480;DHT22;226;48.606;9.096;2023-07-22T13:54:44;30.90;8.10
480;DHT22;226;48.606;9.096;2023-07-22T13:57:13;31.00;6.00
480;DHT22;226;48.606;9.096;2023-07-22T13:59:42;30.90;7.20
480;DHT22;226;48.606;9.096;2023-07-22T14:02:10;31.00;8.00
480;DHT22;226;48.606;9.096;2023-07-22T14:04:38;30.70;6.30
480;DHT22;226;48.606;9.096;2023-07-22T14:07:07;31.10;7.50
480;DHT22;226;48.606;9.096;2023-07-22T14:09:35;31.30;7.70
480;DHT22;226;48.606;9.096;2023-07-22T14:12:03;31.00;7.80
480;DHT22;226;48.606;9.096;2023-07-22T14:19:31;29.20;16.90
480;DHT22;226;48.606;9.096;2023-07-22T14:21:59;29.30;18.20
